createdAt,value
2022-11-08T00:01:36.191Z,190.80
2022-11-08T00:04:10.657Z,190.20
2022-11-08T00:07:00.565Z,193.80
2022-11-08T00:09:52.214Z,196.73
2022-11-08T00:12:41.079Z,193.52
2022-11-08T00:15:14.339Z,207.25
2022-11-08T00:17:46.372Z,195.05
2022-11-08T00:20:19.164Z,172.73
2022-11-08T00:22:51.516Z,192.57
2022-11-08T00:25:26.205Z,190.02
2022-11-08T00:27:58.164Z,180.77
2022-11-08T00:30:31.083Z,176.02
2022-11-08T00:33:03.781Z,186.23
2022-11-08T00:35:36.654Z,179.93
2022-11-08T00:38:08.712Z,176.13
2022-11-08T00:40:42.943Z,178.25
2022-11-08T00:43:15.068Z,178.57
2022-11-08T00:45:47.960Z,180.75
2022-11-08T00:48:20.510Z,172.60
2022-11-08T00:50:53.724Z,170.02
2022-11-08T00:53:26.396Z,181.90
2022-11-08T00:56:05.306Z,185.73
2022-11-08T00:58:37.708Z,155.20
2022-11-08T01:01:14.355Z,153.60
2022-11-08T01:03:47.161Z,158.73
2022-11-08T01:06:22.592Z,162.00
2022-11-08T01:08:55.210Z,161.15
2022-11-08T01:11:29.893Z,162.35
2022-11-08T01:14:04.533Z,163.52
2022-11-08T01:16:38.366Z,167.82
2022-11-08T01:19:14.717Z,168.13
2022-11-08T01:21:47.241Z,172.52
2022-11-08T01:24:20.555Z,167.05
2022-11-08T01:26:54.550Z,167.40
2022-11-08T01:29:26.763Z,170.02
2022-11-08T01:31:59.813Z,172.88
2022-11-08T01:34:32.282Z,175.63
2022-11-08T01:37:04.636Z,170.57
2022-11-08T01:39:37.070Z,171.07
2022-11-08T01:42:11.279Z,171.13
2022-11-08T01:45:01.459Z,166.52
2022-11-08T01:47:33.470Z,175.30
2022-11-08T01:50:09.627Z,176.02
2022-11-08T01:52:45.211Z,175.50
2022-11-08T01:55:21.859Z,184.43
2022-11-08T01:57:59.993Z,192.25
2022-11-08T02:00:32.817Z,188.18
2022-11-08T02:03:07.781Z,197.20
2022-11-08T02:05:40.673Z,199.10
2022-11-08T02:08:20.174Z,203.60
2022-11-08T02:10:55.655Z,235.73
2022-11-08T02:13:31.821Z,242.52
2022-11-08T02:16:04.624Z,213.32
2022-11-08T02:18:36.855Z,216.65
2022-11-08T02:21:15.342Z,212.75
2022-11-08T02:23:51.489Z,209.60
2022-11-08T02:26:28.148Z,218.13
2022-11-08T02:29:00.323Z,217.77
2022-11-08T02:31:32.864Z,216.43
2022-11-08T02:34:05.111Z,195.73
2022-11-08T02:36:37.447Z,208.23
2022-11-08T02:39:11.611Z,254.05
2022-11-08T02:41:44.160Z,228.18
2022-11-08T02:44:16.631Z,225.77
2022-11-08T02:46:49.464Z,220.65
2022-11-08T02:49:21.519Z,229.50
2022-11-08T02:51:56.932Z,245.43
2022-11-08T02:54:30.762Z,210.38
2022-11-08T02:57:03.266Z,230.25
2022-11-08T02:59:35.986Z,242.02
2022-11-08T03:02:08.620Z,244.73
2022-11-08T03:04:42.451Z,247.18
2022-11-08T03:07:15.038Z,275.88
2022-11-08T03:09:49.688Z,248.27
2022-11-08T03:12:22.913Z,246.65
2022-11-08T03:14:55.596Z,248.07
2022-11-08T03:17:28.995Z,230.07
2022-11-08T03:20:01.632Z,232.63
2022-11-08T03:22:33.979Z,219.95
2022-11-08T03:25:07.880Z,232.95
2022-11-08T03:27:39.991Z,219.68
2022-11-08T03:30:13.017Z,209.07
2022-11-08T03:32:47.105Z,220.25
2022-11-08T03:35:19.514Z,214.40
2022-11-08T03:37:55.500Z,238.25
2022-11-08T03:40:29.959Z,210.88
2022-11-08T03:43:02.720Z,242.20
2022-11-08T03:45:35.111Z,233.88
2022-11-08T03:48:07.803Z,223.23
2022-11-08T03:50:40.217Z,229.65
2022-11-08T03:53:13.081Z,212.68
2022-11-08T03:55:48.411Z,217.30
2022-11-08T03:58:20.809Z,238.55
2022-11-08T04:00:53.869Z,228.65
2022-11-08T04:03:26.912Z,221.57
2022-11-08T04:05:59.371Z,224.32
2022-11-08T04:08:31.778Z,204.95
2022-11-08T04:11:19.042Z,210.60
2022-11-08T04:14:07.510Z,195.70
2022-11-08T04:16:40.453Z,185.32
2022-11-08T04:19:29.770Z,195.27
2022-11-08T04:22:02.978Z,202.18
2022-11-08T04:24:35.581Z,185.15
2022-11-08T04:27:09.833Z,188.25
2022-11-08T04:29:42.835Z,195.70
2022-11-08T04:32:15.130Z,199.18
2022-11-08T04:34:50.771Z,211.30
2022-11-08T04:37:23.307Z,217.07
2022-11-08T04:39:55.452Z,214.10
2022-11-08T04:42:30.213Z,190.98
2022-11-08T04:45:02.917Z,211.50
2022-11-08T04:47:39.424Z,198.13
2022-11-08T04:50:13.896Z,200.65
2022-11-08T04:52:47.172Z,200.88
2022-11-08T04:55:22.742Z,193.10
2022-11-08T04:58:02.015Z,196.25
2022-11-08T05:00:34.287Z,215.77
2022-11-08T05:03:07.204Z,207.63
2022-11-08T05:05:39.895Z,211.20
2022-11-08T05:08:14.577Z,219.63
2022-11-08T05:10:49.104Z,219.02
2022-11-08T05:13:24.660Z,234.32
2022-11-08T05:15:57.446Z,243.73
2022-11-08T05:18:30.267Z,189.70
2022-11-08T05:21:22.777Z,215.57
2022-11-08T05:23:55.413Z,189.98
2022-11-08T05:26:28.843Z,191.15
2022-11-08T05:29:02.782Z,183.60
2022-11-08T05:31:35.228Z,188.23
2022-11-08T05:34:08.893Z,190.90
2022-11-08T05:36:42.006Z,196.57
2022-11-08T05:39:14.763Z,199.25
2022-11-08T05:41:47.197Z,178.63
2022-11-08T05:44:31.273Z,188.23
2022-11-08T05:47:04.793Z,184.43
2022-11-08T05:49:42.295Z,186.05
2022-11-08T05:52:15.759Z,186.82
2022-11-08T05:54:49.082Z,160.65
2022-11-08T05:57:23.432Z,169.45
2022-11-08T06:00:09.171Z,162.50
2022-11-08T06:02:46.596Z,143.55
2022-11-08T06:05:19.107Z,135.07
2022-11-08T06:07:54.790Z,146.45
2022-11-08T06:10:46.008Z,159.40
2022-11-08T06:13:19.785Z,142.50
2022-11-08T06:15:57.297Z,132.32
2022-11-08T06:18:29.915Z,133.00
2022-11-08T06:21:03.724Z,134.10
2022-11-08T06:23:42.200Z,118.70
2022-11-08T06:26:17.588Z,126.20
2022-11-08T06:28:50.443Z,117.68
2022-11-08T06:31:25.603Z,101.38
2022-11-08T06:33:57.800Z,104.43
2022-11-08T06:36:34.834Z,114.53
2022-11-08T06:39:25.095Z,109.47
2022-11-08T06:41:57.668Z,112.45
2022-11-08T06:44:34.258Z,113.68
2022-11-08T06:47:17.395Z,114.90
2022-11-08T06:49:51.855Z,129.25
2022-11-08T06:52:26.615Z,127.55
2022-11-08T06:55:00.280Z,126.28
2022-11-08T06:57:32.379Z,124.30
2022-11-08T07:00:16.217Z,122.32
2022-11-08T07:02:57.901Z,126.80
2022-11-08T07:05:31.702Z,131.13
2022-11-08T07:08:12.603Z,132.52
2022-11-08T07:10:46.423Z,129.88
2022-11-08T07:13:21.613Z,136.23
2022-11-08T07:15:54.955Z,126.72
2022-11-08T07:18:31.839Z,125.82
2022-11-08T07:21:07.324Z,144.27
2022-11-08T07:23:40.226Z,153.82
2022-11-08T07:26:12.864Z,149.13
2022-11-08T07:28:46.532Z,144.32
2022-11-08T07:31:21.374Z,139.48
2022-11-08T07:34:09.560Z,140.43
2022-11-08T07:36:51.955Z,145.35
2022-11-08T07:39:55.022Z,142.60
2022-11-08T07:42:43.814Z,139.98
2022-11-08T07:45:28.929Z,136.45
2022-11-08T07:48:09.753Z,128.38
2022-11-08T07:50:48.699Z,133.27
2022-11-08T07:53:22.800Z,126.97
2022-11-08T07:55:56.802Z,118.63
2022-11-08T07:58:29.695Z,135.25
2022-11-08T08:01:05.745Z,131.70
2022-11-08T08:03:41.159Z,137.48
2022-11-08T08:06:15.558Z,129.68
2022-11-08T08:08:49.678Z,142.80
2022-11-08T08:11:23.401Z,144.65
2022-11-08T08:13:57.446Z,153.95
2022-11-08T08:16:33.031Z,143.23
2022-11-08T08:19:08.657Z,153.93
2022-11-08T08:21:43.599Z,143.30
2022-11-08T08:24:17.311Z,131.27
2022-11-08T08:26:54.817Z,144.60
2022-11-08T08:29:30.413Z,134.05
2022-11-08T08:32:07.135Z,129.60
2022-11-08T08:34:40.279Z,126.13
2022-11-08T08:37:18.909Z,136.05
2022-11-08T08:39:52.144Z,131.27
2022-11-08T08:42:24.223Z,129.43
2022-11-08T08:44:57.991Z,133.80
2022-11-08T08:47:32.592Z,131.13
2022-11-08T08:50:08.608Z,133.60
2022-11-08T08:52:43.483Z,136.32
2022-11-08T08:55:16.249Z,133.38
2022-11-08T08:57:53.391Z,128.98
2022-11-08T09:03:22.179Z,134.98
2022-11-08T09:05:54.552Z,133.93
2022-11-08T09:08:43.836Z,126.88
2022-11-08T09:11:30.790Z,124.15
2022-11-08T09:14:16.498Z,129.50
2022-11-08T09:16:51.187Z,129.50
2022-11-08T09:19:32.972Z,122.75
2022-11-08T09:22:48.185Z,129.98
2022-11-08T09:25:23.096Z,126.90
2022-11-08T09:28:18.214Z,129.82
2022-11-08T09:30:50.699Z,119.65
2022-11-08T09:36:06.903Z,113.65
2022-11-08T09:38:48.341Z,111.38
2022-11-08T09:42:19.382Z,119.43
2022-11-08T09:45:28.320Z,105.88
2022-11-08T09:48:05.430Z,100.28
2022-11-08T09:50:45.250Z,96.22
2022-11-08T09:53:22.408Z,93.05
2022-11-08T09:56:00.395Z,90.82
2022-11-08T09:58:40.961Z,90.53
2022-11-08T10:01:24.491Z,86.35
2022-11-08T10:04:07.288Z,88.05
2022-11-08T10:07:07.274Z,87.90
2022-11-08T10:09:57.140Z,88.03
2022-11-08T10:12:38.970Z,84.93
2022-11-08T10:15:25.301Z,90.10
2022-11-08T10:18:28.097Z,89.57
2022-11-08T10:21:09.536Z,96.18
2022-11-08T10:23:55.892Z,99.68
2022-11-08T10:29:40.648Z,104.28
2022-11-08T10:32:28.393Z,99.90
2022-11-08T10:35:52.019Z,102.82
2022-11-08T10:38:32.282Z,111.13
2022-11-08T10:41:20.497Z,109.68
2022-11-08T10:43:58.666Z,107.40
2022-11-08T10:46:48.735Z,112.78
2022-11-08T10:49:36.151Z,112.18
2022-11-08T10:52:28.560Z,111.93
2022-11-08T10:55:04.241Z,111.40
2022-11-08T10:57:46.646Z,106.13
2022-11-08T11:00:35.570Z,108.32
2022-11-08T11:06:07.595Z,110.22
2022-11-08T11:08:55.764Z,114.97
2022-11-08T11:11:43.167Z,108.07
2022-11-08T11:14:22.534Z,111.32
2022-11-08T11:17:00.913Z,116.78
2022-11-08T11:19:36.797Z,120.85
2022-11-08T11:22:13.641Z,114.53
2022-11-08T11:24:56.363Z,113.53
2022-11-08T11:27:38.293Z,116.28
2022-11-08T11:30:32.461Z,115.82
2022-11-08T11:33:26.087Z,114.65
2022-11-08T11:36:02.768Z,115.05
2022-11-08T11:38:42.440Z,102.95
2022-11-08T11:41:21.500Z,114.57
2022-11-08T11:44:01.949Z,116.30
2022-11-08T11:46:42.792Z,114.35
2022-11-08T11:49:20.285Z,118.18
2022-11-08T11:51:57.300Z,120.35
2022-11-08T11:54:33.612Z,115.05
2022-11-08T11:57:20.614Z,114.68
2022-11-08T12:00:07.538Z,116.47
2022-11-08T12:03:08.488Z,115.72
2022-11-08T12:05:51.243Z,114.03
2022-11-08T12:08:35.046Z,109.70
2022-11-08T12:11:37.628Z,111.25
2022-11-08T12:14:27.512Z,112.32
2022-11-08T12:17:12.560Z,113.15
2022-11-08T12:19:56.416Z,106.18
2022-11-08T12:22:46.729Z,115.13
2022-11-08T12:25:27.556Z,111.75
2022-11-08T12:28:09.296Z,108.00
2022-11-08T12:30:54.358Z,107.38
2022-11-08T12:33:42.873Z,107.38
2022-11-08T12:36:36.514Z,112.03
2022-11-08T12:39:23.493Z,113.65
2022-11-08T12:42:06.905Z,114.60
2022-11-08T12:45:03.518Z,103.55
2022-11-08T12:47:43.420Z,104.82
2022-11-08T12:50:29.303Z,108.45
2022-11-08T12:53:23.362Z,106.22
2022-11-08T12:56:02.352Z,107.70
2022-11-08T12:58:41.623Z,101.00
2022-11-08T13:01:17.224Z,100.90
2022-11-08T13:04:28.979Z,103.18
2022-11-08T13:07:08.251Z,102.05
2022-11-08T13:09:56.271Z,95.20
2022-11-08T13:12:44.200Z,95.97
2022-11-08T13:15:22.862Z,101.20
2022-11-08T13:18:36.550Z,100.47
2022-11-08T13:21:39.676Z,102.57
2022-11-08T13:24:45.620Z,99.22
2022-11-08T13:27:37.812Z,104.30
2022-11-08T13:30:47.062Z,96.47
2022-11-08T13:33:30.571Z,106.32
2022-11-08T13:36:17.545Z,102.18
2022-11-08T13:39:06.364Z,100.70
2022-11-08T13:42:06.469Z,89.57
2022-11-08T13:45:01.600Z,82.30
2022-11-08T13:48:03.757Z,77.93
2022-11-08T13:51:43.191Z,73.50
2022-11-08T13:54:56.429Z,68.90
2022-11-08T13:58:00.133Z,67.32
2022-11-08T14:00:49.599Z,66.57
2022-11-08T14:06:21.759Z,59.03
2022-11-08T14:09:07.053Z,62.20
2022-11-08T14:11:57.660Z,63.75
2022-11-08T14:14:54.872Z,67.60
2022-11-08T14:17:43.831Z,59.92
2022-11-08T14:20:27.553Z,63.90
2022-11-08T14:23:05.331Z,84.32
2022-11-08T14:25:40.086Z,83.75
2022-11-08T14:28:28.515Z,85.80
2022-11-08T14:31:09.895Z,101.18
2022-11-08T14:33:46.686Z,94.05
2022-11-08T14:36:22.112Z,88.65
2022-11-08T14:39:06.043Z,92.28
2022-11-08T14:41:39.395Z,96.68
2022-11-08T14:44:27.761Z,82.65
2022-11-08T14:47:09.587Z,90.25
2022-11-08T14:49:42.569Z,96.80
2022-11-08T14:52:18.795Z,97.05
